Rimini / Miramare - Federico Fellini International Airport LIPR

Flugplatz Daten

Name: Rimini / Miramare - Federico Fellini International Airport

Ident: LIPR

Lat: 44,02030182

Long: 12,61170006

Platzhöhe: 40 ft

IataCode: RMI

City: Rimini

Homepage: http://www.riminiairport.com/english/

Metar

2021/12/04 00:20
LIPR 040020Z AUTO 26006KT 9999 NCD 05/03 Q1014

Taf

2021/12/03 00:21
TAF LIPR 032300Z 0400/0424 VRB04KT 9999 BKN050
BECMG 0412/0414 17014KT
Gewünschte Webcam nicht vorhanden? Dann fügen Sie eine hinzu. Sie wird dann so schnell wie möglich freigeschaltet
Url: Title: